sensor_id;sensor_type;location;lat;lon;timestamp;P1;durP1;ratioP1;P2;durP2;ratioP2
64469;SDS011;50854;48.538;14.352;2023-04-30T00:00:59;9.23;;;6.43;;
64469;SDS011;50854;48.538;14.352;2023-04-30T00:01:59;12.17;;;6.57;;
64469;SDS011;50854;48.538;14.352;2023-04-30T00:02:59;8.13;;;5.70;;
64469;SDS011;50854;48.538;14.352;2023-04-30T00:04:00;10.73;;;5.80;;
64469;SDS011;50854;48.538;14.352;2023-04-30T00:05:00;8.20;;;5.83;;
64469;SDS011;50854;48.538;14.352;2023-04-30T00:06:00;9.87;;;6.07;;
64469;SDS011;50854;48.538;14.352;2023-04-30T00:07:00;7.70;;;5.97;;
64469;SDS011;50854;48.538;14.352;2023-04-30T00:08:01;7.90;;;5.93;;
64469;SDS011;50854;48.538;14.352;2023-04-30T00:09:01;9.00;;;6.47;;
64469;SDS011;50854;48.538;14.352;2023-04-30T00:10:01;10.63;;;7.07;;
64469;SDS011;50854;48.538;14.352;2023-04-30T00:11:02;8.45;;;5.85;;
64469;SDS011;50854;48.538;14.352;2023-04-30T00:12:02;9.67;;;6.63;;
64469;SDS011;50854;48.538;14.352;2023-04-30T00:13:02;9.13;;;6.40;;
64469;SDS011;50854;48.538;14.352;2023-04-30T00:14:02;8.97;;;6.00;;
64469;SDS011;50854;48.538;14.352;2023-04-30T00:15:03;11.20;;;6.50;;
64469;SDS011;50854;48.538;14.352;2023-04-30T00:16:03;9.63;;;6.70;;
64469;SDS011;50854;48.538;14.352;2023-04-30T00:17:04;10.18;;;6.28;;
64469;SDS011;50854;48.538;14.352;2023-04-30T00:18:04;8.27;;;6.47;;
64469;SDS011;50854;48.538;14.352;2023-04-30T00:20:06;9.90;;;6.55;;
64469;SDS011;50854;48.538;14.352;2023-04-30T00:21:07;9.13;;;6.57;;
64469;SDS011;50854;48.538;14.352;2023-04-30T00:22:07;8.77;;;6.27;;
64469;SDS011;50854;48.538;14.352;2023-04-30T00:23:07;8.20;;;6.77;;
64469;SDS011;50854;48.538;14.352;2023-04-30T00:24:08;10.87;;;6.40;;
64469;SDS011;50854;48.538;14.352;2023-04-30T00:25:08;7.83;;;4.87;;
64469;SDS011;50854;48.538;14.352;2023-04-30T00:26:08;8.60;;;6.47;;
64469;SDS011;50854;48.538;14.352;2023-04-30T00:27:09;13.47;;;6.60;;
64469;SDS011;50854;48.538;14.352;2023-04-30T00:28:09;10.77;;;6.57;;
64469;SDS011;50854;48.538;14.352;2023-04-30T00:29:09;8.60;;;6.20;;
64469;SDS011;50854;48.538;14.352;2023-04-30T00:30:10;10.13;;;6.17;;
64469;SDS011;50854;48.538;14.352;2023-04-30T00:31:10;6.85;;;5.55;;
64469;SDS011;50854;48.538;14.352;2023-04-30T00:32:10;8.57;;;6.20;;
64469;SDS011;50854;48.538;14.352;2023-04-30T00:33:11;8.07;;;6.10;;
64469;SDS011;50854;48.538;14.352;2023-04-30T00:34:11;10.43;;;6.50;;
64469;SDS011;50854;48.538;14.352;2023-04-30T00:35:11;8.80;;;6.17;;
64469;SDS011;50854;48.538;14.352;2023-04-30T00:36:11;8.37;;;6.17;;
64469;SDS011;50854;48.538;14.352;2023-04-30T00:37:12;8.07;;;6.03;;
64469;SDS011;50854;48.538;14.352;2023-04-30T00:38:12;9.97;;;6.00;;
64469;SDS011;50854;48.538;14.352;2023-04-30T00:39:12;9.43;;;6.60;;
64469;SDS011;50854;48.538;14.352;2023-04-30T00:40:12;13.00;;;7.77;;
64469;SDS011;50854;48.538;14.352;2023-04-30T00:41:13;13.23;;;7.47;;
64469;SDS011;50854;48.538;14.352;2023-04-30T00:42:13;10.60;;;7.40;;
64469;SDS011;50854;48.538;14.352;2023-04-30T00:43:13;12.07;;;7.30;;
64469;SDS011;50854;48.538;14.352;2023-04-30T00:44:13;9.20;;;6.77;;
64469;SDS011;50854;48.538;14.352;2023-04-30T00:45:14;9.97;;;6.80;;
64469;SDS011;50854;48.538;14.352;2023-04-30T00:46:16;9.55;;;7.15;;
64469;SDS011;50854;48.538;14.352;2023-04-30T00:47:16;11.33;;;7.27;;
64469;SDS011;50854;48.538;14.352;2023-04-30T00:48:17;12.40;;;7.80;;
64469;SDS011;50854;48.538;14.352;2023-04-30T00:49:17;11.87;;;7.00;;
64469;SDS011;50854;48.538;14.352;2023-04-30T00:50:17;11.77;;;7.27;;
64469;SDS011;50854;48.538;14.352;2023-04-30T00:51:18;10.27;;;6.77;;
64469;SDS011;50854;48.538;14.352;2023-04-30T00:52:19;11.23;;;6.85;;
64469;SDS011;50854;48.538;14.352;2023-04-30T00:53:19;14.43;;;7.30;;
64469;SDS011;50854;48.538;14.352;2023-04-30T00:54:19;11.57;;;7.43;;
64469;SDS011;50854;48.538;14.352;2023-04-30T00:55:20;11.13;;;7.00;;
64469;SDS011;50854;48.538;14.352;2023-04-30T00:56:20;11.60;;;7.45;;
64469;SDS011;50854;48.538;14.352;2023-04-30T00:57:21;12.47;;;6.90;;
64469;SDS011;50854;48.538;14.352;2023-04-30T00:58:21;11.15;;;6.90;;
64469;SDS011;50854;48.538;14.352;2023-04-30T00:59:21;10.93;;;7.40;;
64469;SDS011;50854;48.538;14.352;2023-04-30T01:00:22;10.57;;;7.47;;
64469;SDS011;50854;48.538;14.352;2023-04-30T01:01:26;12.83;;;7.23;;
64469;SDS011;50854;48.538;14.352;2023-04-30T01:02:27;10.30;;;7.13;;
64469;SDS011;50854;48.538;14.352;2023-04-30T01:03:28;10.20;;;6.53;;
64469;SDS011;50854;48.538;14.352;2023-04-30T01:04:28;13.90;;;7.93;;
64469;SDS011;50854;48.538;14.352;2023-04-30T01:05:28;10.13;;;7.17;;
64469;SDS011;50854;48.538;14.352;2023-04-30T01:06:29;10.90;;;7.03;;
64469;SDS011;50854;48.538;14.352;2023-04-30T01:07:29;10.33;;;7.37;;
64469;SDS011;50854;48.538;14.352;2023-04-30T01:08:30;11.05;;;7.95;;
64469;SDS011;50854;48.538;14.352;2023-04-30T01:09:30;9.05;;;6.72;;
64469;SDS011;50854;48.538;14.352;2023-04-30T01:10:33;10.30;;;6.83;;
64469;SDS011;50854;48.538;14.352;2023-04-30T01:15:24;9.93;;;7.00;;
64469;SDS011;50854;48.538;14.352;2023-04-30T01:16:26;14.43;;;7.50;;
64469;SDS011;50854;48.538;14.352;2023-04-30T01:17:32;13.25;;;7.35;;
64469;SDS011;50854;48.538;14.352;2023-04-30T01:18:38;9.93;;;7.43;;
64469;SDS011;50854;48.538;14.352;2023-04-30T01:19:42;12.10;;;8.18;;
64469;SDS011;50854;48.538;14.352;2023-04-30T01:20:43;11.88;;;7.85;;
64469;SDS011;50854;48.538;14.352;2023-04-30T01:21:47;11.63;;;7.60;;
64469;SDS011;50854;48.538;14.352;2023-04-30T01:27:31;10.38;;;6.75;;
64469;SDS011;50854;48.538;14.352;2023-04-30T01:28:43;14.68;;;7.85;;
64469;SDS011;50854;48.538;14.352;2023-04-30T01:29:43;10.82;;;7.25;;
64469;SDS011;50854;48.538;14.352;2023-04-30T01:30:44;12.63;;;7.57;;
64469;SDS011;50854;48.538;14.352;2023-04-30T01:31:44;13.27;;;7.15;;
64469;SDS011;50854;48.538;14.352;2023-04-30T01:32:45;12.68;;;7.72;;
64469;SDS011;50854;48.538;14.352;2023-04-30T01:33:45;13.57;;;8.17;;
64469;SDS011;50854;48.538;14.352;2023-04-30T01:34:45;12.33;;;8.27;;
64469;SDS011;50854;48.538;14.352;2023-04-30T01:39:27;10.23;;;7.47;;
64469;SDS011;50854;48.538;14.352;2023-04-30T01:40:40;12.70;;;7.82;;
64469;SDS011;50854;48.538;14.352;2023-04-30T01:41:46;12.95;;;8.10;;
64469;SDS011;50854;48.538;14.352;2023-04-30T01:46:31;18.23;;;8.25;;
64469;SDS011;50854;48.538;14.352;2023-04-30T01:50:14;12.43;;;8.05;;
64469;SDS011;50854;48.538;14.352;2023-04-30T01:52:41;13.27;;;8.57;;
64469;SDS011;50854;48.538;14.352;2023-04-30T01:53:44;11.75;;;7.68;;
64469;SDS011;50854;48.538;14.352;2023-04-30T01:54:54;12.60;;;7.60;;
64469;SDS011;50854;48.538;14.352;2023-04-30T01:55:57;11.20;;;7.43;;
64469;SDS011;50854;48.538;14.352;2023-04-30T01:57:05;15.23;;;8.07;;
64469;SDS011;50854;48.538;14.352;2023-04-30T01:58:06;12.10;;;7.78;;
64469;SDS011;50854;48.538;14.352;2023-04-30T13:46:08;4.63;;;3.08;;
64469;SDS011;50854;48.538;14.352;2023-04-30T13:47:10;5.30;;;3.50;;
64469;SDS011;50854;48.538;14.352;2023-04-30T13:48:10;5.55;;;3.72;;
64469;SDS011;50854;48.538;14.352;2023-04-30T13:49:11;4.63;;;3.50;;
64469;SDS011;50854;48.538;14.352;2023-04-30T13:50:11;5.77;;;3.40;;
64469;SDS011;50854;48.538;14.352;2023-04-30T13:51:12;5.75;;;3.47;;
64469;SDS011;50854;48.538;14.352;2023-04-30T13:52:12;7.88;;;3.67;;
64469;SDS011;50854;48.538;14.352;2023-04-30T13:53:13;6.47;;;3.50;;
64469;SDS011;50854;48.538;14.352;2023-04-30T13:54:14;8.07;;;3.70;;
64469;SDS011;50854;48.538;14.352;2023-04-30T13:55:16;4.43;;;3.20;;
64469;SDS011;50854;48.538;14.352;2023-04-30T13:56:16;4.70;;;3.57;;
64469;SDS011;50854;48.538;14.352;2023-04-30T13:57:16;4.83;;;3.70;;
64469;SDS011;50854;48.538;14.352;2023-04-30T13:58:17;8.57;;;3.53;;
64469;SDS011;50854;48.538;14.352;2023-04-30T13:59:17;4.90;;;3.40;;
64469;SDS011;50854;48.538;14.352;2023-04-30T14:00:18;4.55;;;3.50;;
64469;SDS011;50854;48.538;14.352;2023-04-30T14:01:18;6.60;;;3.67;;
64469;SDS011;50854;48.538;14.352;2023-04-30T14:02:19;6.00;;;3.70;;
64469;SDS011;50854;48.538;14.352;2023-04-30T14:03:20;6.78;;;4.10;;
64469;SDS011;50854;48.538;14.352;2023-04-30T14:04:21;5.70;;;3.58;;
64469;SDS011;50854;48.538;14.352;2023-04-30T14:05:21;4.77;;;3.80;;
64469;SDS011;50854;48.538;14.352;2023-04-30T14:06:21;7.97;;;4.30;;
64469;SDS011;50854;48.538;14.352;2023-04-30T14:07:22;5.03;;;3.40;;
64469;SDS011;50854;48.538;14.352;2023-04-30T14:08:23;4.57;;;3.45;;
64469;SDS011;50854;48.538;14.352;2023-04-30T14:09:23;6.37;;;3.33;;
64469;SDS011;50854;48.538;14.352;2023-04-30T14:10:23;7.33;;;3.50;;
64469;SDS011;50854;48.538;14.352;2023-04-30T14:11:24;8.83;;;3.87;;
64469;SDS011;50854;48.538;14.352;2023-04-30T14:12:26;4.15;;;3.33;;
64469;SDS011;50854;48.538;14.352;2023-04-30T14:13:26;4.07;;;3.40;;
64469;SDS011;50854;48.538;14.352;2023-04-30T14:14:27;8.37;;;3.63;;
64469;SDS011;50854;48.538;14.352;2023-04-30T14:15:27;5.60;;;4.05;;
64469;SDS011;50854;48.538;14.352;2023-04-30T14:16:29;8.20;;;3.72;;
64469;SDS011;50854;48.538;14.352;2023-04-30T14:17:29;6.37;;;3.90;;
64469;SDS011;50854;48.538;14.352;2023-04-30T14:18:30;7.05;;;3.80;;
64469;SDS011;50854;48.538;14.352;2023-04-30T14:19:30;6.30;;;3.73;;
64469;SDS011;50854;48.538;14.352;2023-04-30T14:20:31;7.47;;;4.05;;
64469;SDS011;50854;48.538;14.352;2023-04-30T14:21:31;10.03;;;3.90;;
64469;SDS011;50854;48.538;14.352;2023-04-30T14:22:32;4.78;;;3.83;;
64469;SDS011;50854;48.538;14.352;2023-04-30T14:23:34;5.55;;;3.63;;
64469;SDS011;50854;48.538;14.352;2023-04-30T14:24:35;6.45;;;3.55;;
64469;SDS011;50854;48.538;14.352;2023-04-30T14:25:35;5.63;;;3.43;;
64469;SDS011;50854;48.538;14.352;2023-04-30T14:26:35;7.93;;;4.00;;
64469;SDS011;50854;48.538;14.352;2023-04-30T14:27:36;4.63;;;3.50;;
64469;SDS011;50854;48.538;14.352;2023-04-30T14:28:36;5.67;;;3.53;;
64469;SDS011;50854;48.538;14.352;2023-04-30T14:29:36;5.10;;;3.83;;
64469;SDS011;50854;48.538;14.352;2023-04-30T14:30:37;5.20;;;3.63;;
64469;SDS011;50854;48.538;14.352;2023-04-30T14:31:37;6.43;;;4.10;;
64469;SDS011;50854;48.538;14.352;2023-04-30T14:32:37;8.33;;;4.10;;
64469;SDS011;50854;48.538;14.352;2023-04-30T14:33:37;7.83;;;3.80;;
64469;SDS011;50854;48.538;14.352;2023-04-30T14:34:38;5.43;;;3.90;;
64469;SDS011;50854;48.538;14.352;2023-04-30T14:35:38;6.50;;;3.53;;
64469;SDS011;50854;48.538;14.352;2023-04-30T14:36:38;5.27;;;3.93;;
64469;SDS011;50854;48.538;14.352;2023-04-30T14:37:38;5.57;;;3.77;;
64469;SDS011;50854;48.538;14.352;2023-04-30T14:38:39;5.60;;;3.93;;
64469;SDS011;50854;48.538;14.352;2023-04-30T14:39:39;9.73;;;3.80;;
64469;SDS011;50854;48.538;14.352;2023-04-30T14:40:39;5.47;;;3.67;;
64469;SDS011;50854;48.538;14.352;2023-04-30T14:41:40;4.00;;;3.40;;
64469;SDS011;50854;48.538;14.352;2023-04-30T14:42:40;6.63;;;3.53;;
64469;SDS011;50854;48.538;14.352;2023-04-30T14:43:40;3.87;;;3.30;;
64469;SDS011;50854;48.538;14.352;2023-04-30T14:44:41;5.15;;;3.20;;
64469;SDS011;50854;48.538;14.352;2023-04-30T14:45:41;6.47;;;3.60;;
64469;SDS011;50854;48.538;14.352;2023-04-30T14:46:43;4.07;;;3.25;;
64469;SDS011;50854;48.538;14.352;2023-04-30T14:47:43;6.33;;;3.27;;
64469;SDS011;50854;48.538;14.352;2023-04-30T14:48:43;8.33;;;3.47;;
64469;SDS011;50854;48.538;14.352;2023-04-30T14:49:44;4.82;;;3.22;;
64469;SDS011;50854;48.538;14.352;2023-04-30T14:50:44;3.93;;;2.97;;
64469;SDS011;50854;48.538;14.352;2023-04-30T14:51:44;5.32;;;3.38;;
64469;SDS011;50854;48.538;14.352;2023-04-30T14:52:45;4.67;;;3.33;;
64469;SDS011;50854;48.538;14.352;2023-04-30T14:53:46;7.13;;;3.63;;
64469;SDS011;50854;48.538;14.352;2023-04-30T14:54:46;4.63;;;3.43;;
64469;SDS011;50854;48.538;14.352;2023-04-30T14:55:46;4.47;;;3.07;;
64469;SDS011;50854;48.538;14.352;2023-04-30T14:56:46;6.30;;;3.80;;
64469;SDS011;50854;48.538;14.352;2023-04-30T14:57:47;6.57;;;3.27;;
64469;SDS011;50854;48.538;14.352;2023-04-30T14:58:47;5.70;;;3.80;;
64469;SDS011;50854;48.538;14.352;2023-04-30T14:59:47;4.47;;;3.20;;
64469;SDS011;50854;48.538;14.352;2023-04-30T15:00:48;5.73;;;3.30;;
64469;SDS011;50854;48.538;14.352;2023-04-30T15:01:48;6.88;;;3.60;;
64469;SDS011;50854;48.538;14.352;2023-04-30T15:02:49;4.45;;;3.03;;
64469;SDS011;50854;48.538;14.352;2023-04-30T15:03:49;4.13;;;3.13;;
64469;SDS011;50854;48.538;14.352;2023-04-30T15:04:50;6.90;;;3.00;;
64469;SDS011;50854;48.538;14.352;2023-04-30T15:05:51;4.85;;;3.20;;
64469;SDS011;50854;48.538;14.352;2023-04-30T15:06:51;4.67;;;2.90;;
64469;SDS011;50854;48.538;14.352;2023-04-30T15:07:52;6.45;;;3.42;;
64469;SDS011;50854;48.538;14.352;2023-04-30T15:08:52;5.77;;;3.50;;
64469;SDS011;50854;48.538;14.352;2023-04-30T15:09:52;5.47;;;3.37;;
64469;SDS011;50854;48.538;14.352;2023-04-30T15:10:52;6.10;;;3.40;;
64469;SDS011;50854;48.538;14.352;2023-04-30T15:11:54;5.20;;;3.42;;
64469;SDS011;50854;48.538;14.352;2023-04-30T15:12:54;6.70;;;3.40;;
64469;SDS011;50854;48.538;14.352;2023-04-30T15:13:55;4.53;;;3.23;;
64469;SDS011;50854;48.538;14.352;2023-04-30T15:14:55;3.30;;;3.00;;
64469;SDS011;50854;48.538;14.352;2023-04-30T15:15:55;7.17;;;3.30;;
64469;SDS011;50854;48.538;14.352;2023-04-30T15:16:56;7.17;;;3.83;;
64469;SDS011;50854;48.538;14.352;2023-04-30T15:17:56;4.32;;;3.30;;
64469;SDS011;50854;48.538;14.352;2023-04-30T15:18:57;4.18;;;2.95;;
64469;SDS011;50854;48.538;14.352;2023-04-30T15:19:58;9.20;;;3.47;;
64469;SDS011;50854;48.538;14.352;2023-04-30T15:21:00;4.57;;;2.80;;
64469;SDS011;50854;48.538;14.352;2023-04-30T15:22:01;8.85;;;3.50;;
64469;SDS011;50854;48.538;14.352;2023-04-30T15:23:01;5.00;;;3.10;;
64469;SDS011;50854;48.538;14.352;2023-04-30T15:24:02;6.73;;;3.00;;
64469;SDS011;50854;48.538;14.352;2023-04-30T15:25:02;6.43;;;2.80;;
64469;SDS011;50854;48.538;14.352;2023-04-30T15:26:04;4.13;;;3.10;;
64469;SDS011;50854;48.538;14.352;2023-04-30T15:27:04;4.40;;;2.90;;
64469;SDS011;50854;48.538;14.352;2023-04-30T15:28:05;3.83;;;3.00;;
64469;SDS011;50854;48.538;14.352;2023-04-30T15:29:05;6.28;;;2.92;;
64469;SDS011;50854;48.538;14.352;2023-04-30T15:30:08;13.35;;;3.40;;
64469;SDS011;50854;48.538;14.352;2023-04-30T15:31:08;4.68;;;3.28;;
64469;SDS011;50854;48.538;14.352;2023-04-30T15:32:14;6.65;;;3.53;;
64469;SDS011;50854;48.538;14.352;2023-04-30T15:33:16;6.88;;;2.95;;
64469;SDS011;50854;48.538;14.352;2023-04-30T15:34:19;4.97;;;3.60;;
64469;SDS011;50854;48.538;14.352;2023-04-30T15:35:20;7.65;;;3.20;;
64469;SDS011;50854;48.538;14.352;2023-04-30T15:36:20;4.97;;;3.60;;
64469;SDS011;50854;48.538;14.352;2023-04-30T15:37:22;5.82;;;3.53;;
64469;SDS011;50854;48.538;14.352;2023-04-30T15:38:22;6.93;;;3.20;;
64469;SDS011;50854;48.538;14.352;2023-04-30T15:39:22;4.40;;;3.60;;
64469;SDS011;50854;48.538;14.352;2023-04-30T15:40:23;5.10;;;3.23;;
64469;SDS011;50854;48.538;14.352;2023-04-30T15:41:23;3.95;;;3.33;;
64469;SDS011;50854;48.538;14.352;2023-04-30T15:42:23;4.43;;;3.20;;
64469;SDS011;50854;48.538;14.352;2023-04-30T15:43:24;5.47;;;3.53;;
64469;SDS011;50854;48.538;14.352;2023-04-30T15:44:24;7.93;;;3.90;;
64469;SDS011;50854;48.538;14.352;2023-04-30T15:45:24;6.20;;;3.80;;
64469;SDS011;50854;48.538;14.352;2023-04-30T15:46:26;4.25;;;3.15;;
64469;SDS011;50854;48.538;14.352;2023-04-30T15:47:26;4.43;;;3.03;;
64469;SDS011;50854;48.538;14.352;2023-04-30T15:48:27;4.17;;;3.20;;
64469;SDS011;50854;48.538;14.352;2023-04-30T15:49:27;4.67;;;3.20;;
64469;SDS011;50854;48.538;14.352;2023-04-30T15:50:27;3.90;;;3.10;;
64469;SDS011;50854;48.538;14.352;2023-04-30T15:51:28;4.05;;;2.90;;
64469;SDS011;50854;48.538;14.352;2023-04-30T15:52:28;4.40;;;3.07;;
64469;SDS011;50854;48.538;14.352;2023-04-30T15:53:28;3.70;;;2.90;;
64469;SDS011;50854;48.538;14.352;2023-04-30T15:54:28;3.37;;;3.07;;
64469;SDS011;50854;48.538;14.352;2023-04-30T15:55:29;6.60;;;3.67;;
64469;SDS011;50854;48.538;14.352;2023-04-30T15:56:29;4.00;;;3.60;;
64469;SDS011;50854;48.538;14.352;2023-04-30T15:57:30;5.38;;;3.30;;
64469;SDS011;50854;48.538;14.352;2023-04-30T15:58:30;4.20;;;2.87;;
64469;SDS011;50854;48.538;14.352;2023-04-30T15:59:31;3.63;;;2.80;;
64469;SDS011;50854;48.538;14.352;2023-04-30T16:00:31;3.00;;;2.60;;
64469;SDS011;50854;48.538;14.352;2023-04-30T16:01:32;4.18;;;2.60;;
64469;SDS011;50854;48.538;14.352;2023-04-30T16:02:32;6.13;;;3.20;;
64469;SDS011;50854;48.538;14.352;2023-04-30T16:03:34;3.10;;;2.80;;
64469;SDS011;50854;48.538;14.352;2023-04-30T16:04:34;2.90;;;2.60;;
64469;SDS011;50854;48.538;14.352;2023-04-30T16:05:35;3.58;;;2.60;;
64469;SDS011;50854;48.538;14.352;2023-04-30T16:06:39;12.50;;;3.20;;
64469;SDS011;50854;48.538;14.352;2023-04-30T16:07:39;4.40;;;2.93;;
64469;SDS011;50854;48.538;14.352;2023-04-30T16:08:40;9.80;;;3.08;;
64469;SDS011;50854;48.538;14.352;2023-04-30T16:09:41;3.63;;;2.95;;
64469;SDS011;50854;48.538;14.352;2023-04-30T16:10:44;4.00;;;3.15;;
64469;SDS011;50854;48.538;14.352;2023-04-30T16:11:45;5.33;;;3.33;;
64469;SDS011;50854;48.538;14.352;2023-04-30T16:12:46;4.13;;;3.20;;
64469;SDS011;50854;48.538;14.352;2023-04-30T16:13:46;8.27;;;3.33;;
64469;SDS011;50854;48.538;14.352;2023-04-30T16:14:46;5.90;;;3.20;;
64469;SDS011;50854;48.538;14.352;2023-04-30T16:15:46;5.67;;;3.23;;
64469;SDS011;50854;48.538;14.352;2023-04-30T16:16:47;4.67;;;2.93;;
64469;SDS011;50854;48.538;14.352;2023-04-30T16:17:47;4.80;;;3.17;;
64469;SDS011;50854;48.538;14.352;2023-04-30T16:18:47;5.53;;;3.20;;
64469;SDS011;50854;48.538;14.352;2023-04-30T16:19:48;4.18;;;2.95;;
64469;SDS011;50854;48.538;14.352;2023-04-30T16:20:48;6.67;;;3.40;;
64469;SDS011;50854;48.538;14.352;2023-04-30T16:21:49;3.53;;;3.00;;
64469;SDS011;50854;48.538;14.352;2023-04-30T16:22:49;4.43;;;2.87;;
64469;SDS011;50854;48.538;14.352;2023-04-30T16:23:49;6.53;;;3.40;;
64469;SDS011;50854;48.538;14.352;2023-04-30T16:24:50;4.63;;;2.88;;
64469;SDS011;50854;48.538;14.352;2023-04-30T16:25:50;7.17;;;3.63;;
64469;SDS011;50854;48.538;14.352;2023-04-30T16:26:50;3.77;;;2.90;;
64469;SDS011;50854;48.538;14.352;2023-04-30T16:27:51;8.60;;;2.77;;
64469;SDS011;50854;48.538;14.352;2023-04-30T16:28:51;4.13;;;3.40;;
64469;SDS011;50854;48.538;14.352;2023-04-30T16:29:51;5.50;;;2.93;;
64469;SDS011;50854;48.538;14.352;2023-04-30T16:30:52;3.43;;;2.90;;
64469;SDS011;50854;48.538;14.352;2023-04-30T16:31:52;5.10;;;2.93;;
64469;SDS011;50854;48.538;14.352;2023-04-30T16:32:53;3.50;;;2.83;;
64469;SDS011;50854;48.538;14.352;2023-04-30T16:33:53;4.27;;;2.90;;
64469;SDS011;50854;48.538;14.352;2023-04-30T16:34:53;4.23;;;3.30;;
64469;SDS011;50854;48.538;14.352;2023-04-30T16:35:53;6.17;;;2.90;;
64469;SDS011;50854;48.538;14.352;2023-04-30T16:36:54;4.63;;;2.90;;
64469;SDS011;50854;48.538;14.352;2023-04-30T16:37:54;3.93;;;2.87;;
64469;SDS011;50854;48.538;14.352;2023-04-30T16:38:54;6.13;;;3.10;;
64469;SDS011;50854;48.538;14.352;2023-04-30T16:39:55;3.50;;;2.57;;
64469;SDS011;50854;48.538;14.352;2023-04-30T16:40:55;4.10;;;2.97;;
64469;SDS011;50854;48.538;14.352;2023-04-30T16:41:56;5.73;;;2.97;;
64469;SDS011;50854;48.538;14.352;2023-04-30T16:42:56;3.50;;;2.73;;
64469;SDS011;50854;48.538;14.352;2023-04-30T16:43:58;6.75;;;3.40;;
64469;SDS011;50854;48.538;14.352;2023-04-30T16:44:58;4.70;;;2.93;;
64469;SDS011;50854;48.538;14.352;2023-04-30T16:45:59;4.10;;;2.92;;
64469;SDS011;50854;48.538;14.352;2023-04-30T16:46:59;5.65;;;2.75;;
64469;SDS011;50854;48.538;14.352;2023-04-30T16:48:00;3.77;;;2.80;;
64469;SDS011;50854;48.538;14.352;2023-04-30T16:49:01;3.47;;;2.70;;
64469;SDS011;50854;48.538;14.352;2023-04-30T16:50:01;5.80;;;2.95;;
64469;SDS011;50854;48.538;14.352;2023-04-30T16:51:02;4.53;;;3.22;;
64469;SDS011;50854;48.538;14.352;2023-04-30T16:52:12;6.35;;;3.30;;
64469;SDS011;50854;48.538;14.352;2023-04-30T16:53:19;6.70;;;3.53;;
64469;SDS011;50854;48.538;14.352;2023-04-30T16:54:22;4.15;;;2.90;;
64469;SDS011;50854;48.538;14.352;2023-04-30T16:55:22;5.65;;;3.10;;
64469;SDS011;50854;48.538;14.352;2023-04-30T16:56:26;5.60;;;2.83;;
64469;SDS011;50854;48.538;14.352;2023-04-30T16:57:28;5.65;;;2.85;;
64469;SDS011;50854;48.538;14.352;2023-04-30T16:58:28;5.37;;;3.20;;
64469;SDS011;50854;48.538;14.352;2023-04-30T16:59:29;6.93;;;2.78;;
64469;SDS011;50854;48.538;14.352;2023-04-30T17:00:29;5.43;;;2.80;;
64469;SDS011;50854;48.538;14.352;2023-04-30T17:01:30;2.57;;;2.37;;
64469;SDS011;50854;48.538;14.352;2023-04-30T17:02:31;5.13;;;3.10;;
64469;SDS011;50854;48.538;14.352;2023-04-30T17:03:31;3.10;;;2.60;;
64469;SDS011;50854;48.538;14.352;2023-04-30T17:04:33;6.95;;;3.20;;
64469;SDS011;50854;48.538;14.352;2023-04-30T17:06:34;4.00;;;2.80;;
64469;SDS011;50854;48.538;14.352;2023-04-30T17:07:35;3.47;;;2.80;;
64469;SDS011;50854;48.538;14.352;2023-04-30T17:08:36;4.90;;;2.95;;
64469;SDS011;50854;48.538;14.352;2023-04-30T17:09:37;3.67;;;3.20;;
64469;SDS011;50854;48.538;14.352;2023-04-30T17:10:38;5.53;;;3.13;;
64469;SDS011;50854;48.538;14.352;2023-04-30T17:11:38;7.13;;;3.40;;
64469;SDS011;50854;48.538;14.352;2023-04-30T17:12:38;4.40;;;3.53;;
64469;SDS011;50854;48.538;14.352;2023-04-30T17:13:38;4.73;;;3.00;;
64469;SDS011;50854;48.538;14.352;2023-04-30T17:14:39;4.20;;;3.13;;
64469;SDS011;50854;48.538;14.352;2023-04-30T17:15:39;7.15;;;3.00;;
64469;SDS011;50854;48.538;14.352;2023-04-30T17:16:40;5.07;;;2.72;;
64469;SDS011;50854;48.538;14.352;2023-04-30T17:17:40;4.00;;;3.03;;
64469;SDS011;50854;48.538;14.352;2023-04-30T17:18:41;5.33;;;2.93;;
64469;SDS011;50854;48.538;14.352;2023-04-30T17:20:42;7.67;;;3.33;;
64469;SDS011;50854;48.538;14.352;2023-04-30T17:21:44;4.28;;;3.25;;
64469;SDS011;50854;48.538;14.352;2023-04-30T17:22:44;5.13;;;3.47;;
64469;SDS011;50854;48.538;14.352;2023-04-30T17:23:45;6.17;;;3.47;;
64469;SDS011;50854;48.538;14.352;2023-04-30T17:24:45;6.83;;;3.33;;
64469;SDS011;50854;48.538;14.352;2023-04-30T17:25:46;4.65;;;3.67;;
64469;SDS011;50854;48.538;14.352;2023-04-30T17:26:47;3.80;;;3.10;;
64469;SDS011;50854;48.538;14.352;2023-04-30T17:27:47;5.03;;;3.30;;
64469;SDS011;50854;48.538;14.352;2023-04-30T17:28:48;10.02;;;3.85;;
64469;SDS011;50854;48.538;14.352;2023-04-30T17:29:48;4.00;;;3.60;;
64469;SDS011;50854;48.538;14.352;2023-04-30T17:30:49;5.60;;;3.83;;
64469;SDS011;50854;48.538;14.352;2023-04-30T17:31:50;4.53;;;3.40;;
64469;SDS011;50854;48.538;14.352;2023-04-30T17:32:50;4.47;;;3.20;;
64469;SDS011;50854;48.538;14.352;2023-04-30T17:33:51;4.47;;;3.60;;
64469;SDS011;50854;48.538;14.352;2023-04-30T17:34:51;3.87;;;3.07;;
64469;SDS011;50854;48.538;14.352;2023-04-30T17:35:52;5.23;;;3.67;;
64469;SDS011;50854;48.538;14.352;2023-04-30T17:36:52;9.83;;;3.80;;
64469;SDS011;50854;48.538;14.352;2023-04-30T17:37:52;4.67;;;3.10;;
64469;SDS011;50854;48.538;14.352;2023-04-30T17:38:53;4.30;;;3.63;;
64469;SDS011;50854;48.538;14.352;2023-04-30T17:39:54;5.15;;;3.60;;
64469;SDS011;50854;48.538;14.352;2023-04-30T17:40:54;5.90;;;3.53;;
64469;SDS011;50854;48.538;14.352;2023-04-30T17:41:56;7.95;;;3.33;;
64469;SDS011;50854;48.538;14.352;2023-04-30T17:42:57;6.45;;;3.35;;
64469;SDS011;50854;48.538;14.352;2023-04-30T17:43:57;7.03;;;4.07;;
64469;SDS011;50854;48.538;14.352;2023-04-30T17:44:57;10.13;;;3.90;;
64469;SDS011;50854;48.538;14.352;2023-04-30T17:45:58;5.43;;;3.93;;
64469;SDS011;50854;48.538;14.352;2023-04-30T17:46:58;4.87;;;3.87;;
64469;SDS011;50854;48.538;14.352;2023-04-30T17:47:58;4.40;;;3.50;;
64469;SDS011;50854;48.538;14.352;2023-04-30T17:49:02;6.03;;;3.85;;
64469;SDS011;50854;48.538;14.352;2023-04-30T17:50:03;6.07;;;3.95;;
64469;SDS011;50854;48.538;14.352;2023-04-30T17:51:10;4.18;;;3.60;;
64469;SDS011;50854;48.538;14.352;2023-04-30T17:52:15;4.63;;;3.75;;
64469;SDS011;50854;48.538;14.352;2023-04-30T17:53:18;5.80;;;4.13;;
64469;SDS011;50854;48.538;14.352;2023-04-30T17:54:22;7.00;;;3.55;;
64469;SDS011;50854;48.538;14.352;2023-04-30T17:55:25;4.63;;;3.60;;
64469;SDS011;50854;48.538;14.352;2023-04-30T17:56:27;4.95;;;3.90;;
64469;SDS011;50854;48.538;14.352;2023-04-30T17:57:28;6.90;;;4.30;;
64469;SDS011;50854;48.538;14.352;2023-04-30T17:58:29;5.80;;;4.23;;
64469;SDS011;50854;48.538;14.352;2023-04-30T17:59:29;4.87;;;3.97;;
64469;SDS011;50854;48.538;14.352;2023-04-30T18:00:29;9.35;;;5.28;;
64469;SDS011;50854;48.538;14.352;2023-04-30T18:01:30;7.40;;;4.80;;
64469;SDS011;50854;48.538;14.352;2023-04-30T18:02:30;6.55;;;4.30;;
64469;SDS011;50854;48.538;14.352;2023-04-30T18:03:31;5.43;;;4.30;;
64469;SDS011;50854;48.538;14.352;2023-04-30T18:04:31;5.53;;;3.73;;
64469;SDS011;50854;48.538;14.352;2023-04-30T18:05:32;4.50;;;3.93;;
64469;SDS011;50854;48.538;14.352;2023-04-30T18:07:33;4.68;;;3.72;;
64469;SDS011;50854;48.538;14.352;2023-04-30T18:08:34;4.70;;;3.70;;
64469;SDS011;50854;48.538;14.352;2023-04-30T18:09:34;4.20;;;3.65;;
64469;SDS011;50854;48.538;14.352;2023-04-30T18:10:34;5.95;;;3.75;;
64469;SDS011;50854;48.538;14.352;2023-04-30T18:11:36;4.63;;;2.97;;